Time;durP1;ratioP1;P1;durP2;ratioP2;P2;SDS_P1;SDS_P2;PMS_P1;PMS_P2;Temp;Humidity;BMP_temperature;BMP_pressure;BME280_temperature;BME280_humidity;BME280_pressure;Samples;Min_cycle;Max_cycle;Signal;HPM_P1;HPM_P2
2021/01/14 00:00:45;;;;;;;38.10;24.23;;;;;;;-2.23;77.36;98108.50;1781739;79;21145;-66
2021/01/14 00:03:13;;;;;;;40.15;24.47;;;;;;;-2.19;77.20;98105.67;1778673;79;21141;-66
2021/01/14 00:05:41;;;;;;;38.40;24.40;;;;;;;-2.37;77.08;98072.98;1761035;79;21150;-66
2021/01/14 00:08:10;;;;;;;43.70;25.45;;;;;;;-2.17;77.10;98106.27;1769474;80;21280;-66
2021/01/14 00:10:38;;;;;;;39.42;24.92;;;;;;;-2.14;76.96;98112.98;1779850;80;21138;-66
2021/01/14 00:13:07;;;;;;;41.37;25.75;;;;;;;-2.12;77.13;98114.89;1766405;80;21161;-66
2021/01/14 00:15:36;;;;;;;45.40;26.65;;;;;;;-2.10;77.17;98109.64;1803219;79;21687;-67
2021/01/14 00:18:04;;;;;;;43.58;26.00;;;;;;;-2.02;77.09;98108.49;1777976;80;21684;-67
2021/01/14 00:20:32;;;;;;;46.08;27.27;;;;;;;-1.96;76.92;98113.41;1791113;79;21142;-66
2021/01/14 00:23:00;;;;;;;46.80;27.25;;;;;;;-2.01;76.66;98113.58;1788555;79;21175;-66
2021/01/14 00:25:28;;;;;;;42.13;25.25;;;;;;;-2.29;76.57;98069.44;1799396;78;21747;-67
2021/01/14 00:27:57;;;;;;;55.10;31.00;;;;;;;-2.13;76.67;98110.10;1784816;79;21157;-67
2021/01/14 00:30:28;;;;;;;42.00;25.68;;;;;;;-2.19;76.83;98114.19;1808230;79;21164;-67
2021/01/14 00:33:00;;;;;;;45.45;27.65;;;;;;;-2.21;76.79;98114.42;1795200;78;21125;-66
2021/01/14 00:35:28;;;;;;;40.23;25.25;;;;;;;-2.26;76.96;98119.63;1772241;78;21132;-66
2021/01/14 00:37:56;;;;;;;45.33;27.25;;;;;;;-2.20;77.22;98117.91;1805264;79;21307;-66
2021/01/14 00:40:29;;;;;;;49.27;27.93;;;;;;;-2.18;77.16;98117.15;1796920;79;21173;-66
2021/01/14 00:43:08;;;;;;;43.52;26.60;;;;;;;-2.19;77.10;98116.84;1791303;79;21311;-65
2021/01/14 00:45:36;;;;;;;45.28;26.75;;;;;;;-2.16;77.10;98118.53;1757456;80;21161;-65
2021/01/14 00:48:05;;;;;;;46.53;27.93;;;;;;;-2.13;77.09;98121.28;1775128;80;21806;-65
2021/01/14 00:50:33;;;;;;;45.00;27.67;;;;;;;-2.13;77.01;98114.10;1795981;79;21695;-65
2021/01/14 00:53:01;;;;;;;45.12;27.73;;;;;;;-2.06;77.04;98104.66;1805379;79;21300;-66
2021/01/14 00:55:29;;;;;;;48.25;28.75;;;;;;;-2.06;76.84;98102.81;1782962;79;21158;-66
2021/01/14 00:57:57;;;;;;;44.35;28.17;;;;;;;-2.11;76.88;98103.19;1789056;79;21262;-65
2021/01/14 01:00:25;;;;;;;44.83;28.17;;;;;;;-2.05;76.96;98103.08;1777154;79;21299;-65
2021/01/14 01:02:53;;;;;;;45.92;28.30;;;;;;;-2.03;76.90;98106.34;1772009;80;21178;-65
2021/01/14 01:05:21;;;;;;;47.80;28.38;;;;;;;-2.05;76.79;98105.74;1773195;80;21632;-65
2021/01/14 01:08:00;;;;;;;42.93;26.52;;;;;;;-2.05;76.78;98108.92;1776480;80;21141;-66
2021/01/14 01:10:27;;;;;;;47.00;28.17;;;;;;;-2.08;76.82;98115.54;1775830;79;21620;-65
2021/01/14 01:12:57;;;;;;;41.98;26.10;;;;;;;-2.09;76.71;98108.58;1788359;79;21307;-66
2021/01/14 01:15:25;;;;;;;42.90;25.20;;;;;;;-2.14;76.81;98108.98;1782196;79;21739;-65
2021/01/14 01:17:53;;;;;;;42.05;25.52;;;;;;;-2.17;76.96;98109.45;1796144;79;21294;-65
2021/01/14 01:20:21;;;;;;;41.13;25.43;;;;;;;-2.16;76.95;98109.75;1795492;79;21316;-67
2021/01/14 01:22:49;;;;;;;40.63;24.90;;;;;;;-2.16;77.04;98103.87;1806193;79;21818;-66
2021/01/14 01:25:17;;;;;;;46.00;26.97;;;;;;;-2.17;77.18;98110.27;1802476;79;21290;-66
2021/01/14 01:27:46;;;;;;;42.40;26.25;;;;;;;-2.13;77.12;98107.44;1783929;79;21129;-66
2021/01/14 01:30:15;;;;;;;44.45;27.10;;;;;;;-2.12;77.20;98101.56;1799417;78;21157;-65
2021/01/14 01:32:45;;;;;;;43.30;26.60;;;;;;;-2.13;77.36;98106.10;1781996;78;21319;-65
2021/01/14 01:35:13;;;;;;;43.80;26.82;;;;;;;-2.08;77.46;98107.55;1754223;79;21308;-66
2021/01/14 01:37:42;;;;;;;41.48;24.63;;;;;;;-2.07;77.45;98103.03;1788554;79;21301;-66
2021/01/14 01:40:15;;;;;;;43.55;27.73;;;;;;;-2.08;77.41;98103.55;1778055;79;21751;-65
2021/01/14 01:42:43;;;;;;;40.78;26.70;;;;;;;-2.07;77.40;98108.36;1756566;80;21295;-65
2021/01/14 01:45:12;;;;;;;43.42;26.37;;;;;;;-2.09;77.54;98108.58;1758809;80;21566;-66
2021/01/14 01:49:36;;;;;;;41.33;26.17;;;;;;;-1.98;77.47;98103.52;1805201;77;22830;-57
2021/01/14 01:52:06;;;;;;;44.67;28.10;;;;;;;-2.06;77.45;98106.81;1759828;80;21141;-57
2021/01/14 01:54:35;;;;;;;44.63;28.40;;;;;;;-2.06;77.40;98103.33;1731370;80;21288;-57
2021/01/14 01:57:05;;;;;;;42.20;26.57;;;;;;;-2.04;77.33;98107.89;1759581;81;21311;-57
2021/01/14 01:59:34;;;;;;;39.95;25.17;;;;;;;-2.04;77.35;98104.70;1766303;80;21295;-57
2021/01/14 02:02:27;;;;;;;39.23;23.67;;;;;;;-2.02;77.26;98109.83;1711272;83;21427;-57
2021/01/14 02:04:56;;;;;;;47.08;28.17;;;;;;;-2.07;77.21;98107.03;1698459;83;21280;-57
2021/01/14 02:08:04;;;;;;;48.55;28.25;;;;;;;-2.13;77.49;98108.77;1717210;83;21162;-57
2021/01/14 02:10:56;;;;;;;41.60;25.75;;;;;;;-2.13;77.53;98113.28;1706217;84;21145;-57
2021/01/14 02:14:01;;;;;;;50.55;29.02;;;;;;;-2.15;77.51;98115.35;1714200;83;21608;-57
2021/01/14 02:16:30;;;;;;;41.37;26.82;;;;;;;-2.14;77.54;98116.47;1706512;83;21181;-57
2021/01/14 02:18:59;;;;;;;45.28;27.85;;;;;;;-2.12;77.59;98114.89;1706126;84;21331;-57
2021/01/14 02:21:27;;;;;;;43.80;27.77;;;;;;;-2.14;77.53;98119.65;1706650;83;21188;-57
2021/01/14 02:24:08;;;;;;;53.08;30.97;;;;;;;-2.14;77.54;98113.80;1706524;83;21134;-58
2021/01/14 02:26:38;;;;;;;48.05;29.63;;;;;;;-2.14;77.61;98116.47;1680543;84;21731;-56
2021/01/14 02:29:06;;;;;;;49.83;30.45;;;;;;;-2.16;77.64;98109.75;1705908;84;21288;-57
2021/01/14 02:31:35;;;;;;;45.25;28.65;;;;;;;-2.18;77.73;98116.63;1729720;83;21193;-57
2021/01/14 02:34:02;;;;;;;46.70;28.75;;;;;;;-2.20;77.78;98113.39;1710619;83;21276;-57
2021/01/14 02:36:31;;;;;;;47.23;30.70;;;;;;;-2.22;77.83;98112.80;1711765;83;21310;-57
2021/01/14 02:38:59;;;;;;;45.30;28.75;;;;;;;-2.20;77.86;98115.25;1706297;83;21610;-57
2021/01/14 02:41:27;;;;;;;45.75;28.73;;;;;;;-2.20;77.90;98114.73;1706097;84;21361;-57
2021/01/14 02:43:55;;;;;;;46.15;28.83;;;;;;;-2.37;77.82;98072.98;1716486;82;21525;-57
2021/01/14 02:46:23;;;;;;;49.65;28.73;;;;;;;-2.15;77.90;98111.35;1708036;83;21294;-57
2021/01/14 02:48:55;;;;;;;45.55;29.65;;;;;;;-2.14;77.85;98115.66;1719522;83;21351;-57
2021/01/14 02:51:33;;;;;;;43.48;27.87;;;;;;;-2.09;77.71;98110.45;1746964;82;21323;-57
2021/01/14 02:54:01;;;;;;;47.17;27.58;;;;;;;-2.08;77.76;98105.39;1749933;82;21284;-57
2021/01/14 02:56:31;;;;;;;45.00;27.98;;;;;;;-2.03;77.65;98109.01;1724927;82;21173;-57
2021/01/14 02:59:01;;;;;;;45.48;29.65;;;;;;;-1.99;77.51;98105.36;1723526;82;21295;-57
2021/01/14 03:01:30;;;;;;;47.38;27.98;;;;;;;-2.00;77.38;98099.73;1745806;82;21158;-57
2021/01/14 03:03:58;;;;;;;44.18;28.15;;;;;;;-1.98;77.33;98098.17;1751487;81;21340;-57
2021/01/14 03:06:26;;;;;;;43.78;28.07;;;;;;;-1.96;77.40;98102.23;1751301;82;21403;-57
2021/01/14 03:08:55;;;;;;;41.53;26.70;;;;;;;-1.94;77.40;98099.31;1750721;81;21166;-57
2021/01/14 03:11:29;;;;;;;42.62;27.75;;;;;;;-1.88;77.16;98092.55;1747253;82;21541;-57
2021/01/14 03:13:58;;;;;;;42.67;26.93;;;;;;;-1.81;77.11;98092.44;1747524;81;21161;-57
2021/01/14 03:16:26;;;;;;;42.08;26.90;;;;;;;-1.79;77.08;98099.16;1746425;82;21189;-57
2021/01/14 03:18:54;;;;;;;44.03;28.12;;;;;;;-1.73;76.98;98102.22;1730278;82;21193;-57
2021/01/14 03:21:25;;;;;;;45.75;28.40;;;;;;;-1.68;76.78;98102.34;1746611;81;21292;-56
2021/01/14 03:23:53;;;;;;;44.60;27.32;;;;;;;-1.69;76.65;98102.56;1716704;83;21311;-56
2021/01/14 03:26:21;;;;;;;45.15;27.87;;;;;;;-1.70;76.48;98099.62;1686833;83;21320;-56
2021/01/14 03:28:49;;;;;;;45.73;28.57;;;;;;;-1.75;76.48;98102.98;1732433;82;21173;-57
2021/01/14 03:31:18;;;;;;;45.70;28.05;;;;;;;-1.76;76.38;98106.69;1748332;82;21154;-57
2021/01/14 03:33:49;;;;;;;43.80;27.95;;;;;;;-1.82;76.39;98108.14;1746426;82;21157;-57
2021/01/14 03:36:18;;;;;;;47.55;30.17;;;;;;;-1.89;76.61;98100.78;1743081;82;21626;-57
2021/01/14 03:38:46;;;;;;;49.63;30.35;;;;;;;-1.93;76.73;98101.77;1740463;82;21332;-57
2021/01/14 03:41:18;;;;;;;43.38;27.07;;;;;;;-1.97;76.92;98105.11;1681230;85;21466;-57
2021/01/14 03:43:46;;;;;;;46.50;29.20;;;;;;;-2.01;77.07;98096.77;1685645;84;21205;-57
2021/01/14 03:46:16;;;;;;;47.55;30.57;;;;;;;-2.05;77.13;98098.27;1686908;84;21340;-58
2021/01/14 03:48:45;;;;;;;44.63;28.10;;;;;;;-2.11;77.33;98097.34;1694953;84;21360;-57
2021/01/14 03:51:21;;;;;;;43.35;28.52;;;;;;;-2.11;77.53;98096.52;1683082;84;21277;-57
2021/01/14 03:53:50;;;;;;;44.75;28.67;;;;;;;-2.03;77.57;98100.19;1742516;82;21300;-57
2021/01/14 03:56:18;;;;;;;44.03;27.07;;;;;;;-1.99;77.45;98097.88;1743442;82;21146;-57
2021/01/14 03:58:46;;;;;;;42.80;27.85;;;;;;;-2.02;77.37;98100.49;1743162;81;21685;-57
2021/01/14 04:01:15;;;;;;;47.38;29.23;;;;;;;-2.05;77.33;98100.92;1741596;82;21308;-57
2021/01/14 04:03:43;;;;;;;45.35;28.87;;;;;;;-2.12;77.45;98105.55;1769121;81;21311;-57
2021/01/14 04:06:11;;;;;;;45.63;27.37;;;;;;;-2.19;77.70;98101.67;1755247;81;21324;-57
2021/01/14 04:08:40;;;;;;;46.60;28.23;;;;;;;-2.19;77.76;98103.52;1744043;81;21126;-57
2021/01/14 04:11:11;;;;;;;42.93;28.27;;;;;;;-2.23;77.95;98097.83;1689535;84;21308;-57
2021/01/14 04:13:41;;;;;;;43.85;27.27;;;;;;;-2.26;78.20;98090.81;1742780;81;21355;-57
2021/01/14 04:16:12;;;;;;;42.55;27.65;;;;;;;-2.26;78.21;98088.15;1740762;82;21641;-57
2021/01/14 04:18:41;;;;;;;43.48;27.37;;;;;;;-2.26;78.31;98086.82;1742871;81;21582;-57
2021/01/14 04:21:12;;;;;;;43.98;28.25;;;;;;;-2.23;78.50;98079.72;1742694;81;21163;-57
2021/01/14 04:23:41;;;;;;;43.48;27.58;;;;;;;-2.16;78.53;98083.88;1744518;82;21297;-57
2021/01/14 04:26:09;;;;;;;46.18;28.50;;;;;;;-2.13;78.39;98090.11;1726746;81;21696;-57
2021/01/14 04:28:38;;;;;;;44.67;28.50;;;;;;;-2.11;78.36;98087.20;1758373;81;21181;-57
2021/01/14 04:31:06;;;;;;;45.55;28.92;;;;;;;-2.08;78.31;98096.06;1741189;81;21207;-57
2021/01/14 04:33:34;;;;;;;46.50;27.95;;;;;;;-2.05;78.39;98087.59;1755714;81;21162;-57
2021/01/14 04:36:03;;;;;;;47.00;28.15;;;;;;;-2.04;78.32;98097.23;1702018;84;21158;-57
2021/01/14 04:38:31;;;;;;;48.28;29.52;;;;;;;-2.02;78.17;98092.49;1697788;84;21138;-57
2021/01/14 04:41:01;;;;;;;45.60;29.32;;;;;;;-2.05;78.12;98096.41;1743141;81;21532;-57
2021/01/14 04:43:30;;;;;;;45.28;27.90;;;;;;;-2.06;78.12;98101.98;1742242;81;21198;-57
2021/01/14 04:46:11;;;;;;;43.13;27.13;;;;;;;-2.07;78.06;98101.17;1743129;81;21186;-57
2021/01/14 04:48:43;;;;;;;40.78;26.57;;;;;;;-2.05;78.03;98104.41;1742134;81;21721;-57
2021/01/14 04:51:18;;;;;;;46.13;27.87;;;;;;;-2.05;77.90;98107.59;1742329;82;21295;-57
2021/01/14 04:53:48;;;;;;;45.10;28.12;;;;;;;-2.09;77.88;98108.58;1743397;82;21310;-57
2021/01/14 04:56:17;;;;;;;42.55;27.17;;;;;;;-2.14;77.81;98097.80;1742691;82;21304;-57
2021/01/14 04:58:49;;;;;;;44.80;27.27;;;;;;;-2.17;77.91;98103.60;1756087;81;21311;-57
2021/01/14 05:01:23;;;;;;;42.90;27.15;;;;;;;-2.16;77.98;98101.75;1690315;84;21182;-57
2021/01/14 05:03:52;;;;;;;41.13;25.02;;;;;;;-2.15;78.01;98103.35;1705278;83;21332;-57
2021/01/14 05:06:21;;;;;;;34.35;22.13;;;;;;;-2.11;78.05;98104.52;1690684;84;21389;-57
2021/01/14 05:08:51;;;;;;;37.83;23.83;;;;;;;-2.10;77.74;98106.16;1740820;82;21315;-57
2021/01/14 05:11:19;;;;;;;38.10;24.27;;;;;;;-2.14;77.61;98104.47;1753770;81;21158;-57
2021/01/14 05:13:47;;;;;;;42.48;26.73;;;;;;;-2.15;77.59;98099.36;1708100;84;21158;-57
2021/01/14 05:16:15;;;;;;;38.45;25.10;;;;;;;-2.10;77.55;98100.83;1755632;81;21273;-57
2021/01/14 05:18:43;;;;;;;42.67;26.42;;;;;;;-2.08;77.45;98102.20;1722921;81;21142;-57
2021/01/14 05:21:11;;;;;;;42.05;27.20;;;;;;;-2.11;77.25;98101.86;1701330;84;21163;-57
2021/01/14 05:23:39;;;;;;;40.73;26.17;;;;;;;-2.15;77.18;98098.84;1742405;81;21138;-57
2021/01/14 05:26:08;;;;;;;43.08;27.90;;;;;;;-2.16;77.22;98091.88;1741934;82;21154;-56
2021/01/14 05:28:38;;;;;;;46.42;27.37;;;;;;;-2.17;77.21;98094.27;1742880;82;21320;-57
2021/01/14 05:31:17;;;;;;;42.88;26.97;;;;;;;-2.18;77.13;98094.48;1747243;81;21236;-57
2021/01/14 05:33:59;;;;;;;41.88;25.92;;;;;;;-2.20;77.22;98096.06;1752153;81;21189;-57
2021/01/14 05:36:27;;;;;;;44.60;25.85;;;;;;;-2.18;77.38;98097.97;1741255;81;21199;-58
2021/01/14 05:38:58;;;;;;;42.65;27.17;;;;;;;-2.14;77.41;98095.14;1741376;81;21111;-57
2021/01/14 05:41:28;;;;;;;41.42;26.30;;;;;;;-2.09;77.42;98098.45;1743033;82;21208;-58
2021/01/14 05:44:02;;;;;;;39.00;24.35;;;;;;;-2.07;77.35;98099.03;1741859;81;21198;-58
2021/01/14 05:46:32;;;;;;;43.40;25.95;;;;;;;-2.07;77.12;98095.84;1757774;81;21177;-57
2021/01/14 05:49:03;;;;;;;40.95;25.68;;;;;;;-2.10;77.13;98092.83;1742987;80;21300;-57
2021/01/14 05:51:34;;;;;;;41.73;26.27;;;;;;;-2.13;77.30;98097.29;1748490;81;21291;-57
2021/01/14 05:54:07;;;;;;;40.35;24.55;;;;;;;-2.09;77.24;98097.91;1748477;82;21310;-57
2021/01/14 05:56:49;;;;;;;46.92;27.48;;;;;;;-2.07;77.28;98103.03;1748523;80;21176;-58
2021/01/14 05:59:20;;;;;;;45.23;27.93;;;;;;;-2.11;77.37;98110.67;1759049;80;21138;-57
2021/01/14 06:01:58;;;;;;;48.58;27.67;;;;;;;-2.09;77.34;98105.91;1684667;84;21303;-57
2021/01/14 06:04:29;;;;;;;52.03;29.57;;;;;;;-2.08;77.33;98104.06;1756611;80;21130;-57
2021/01/14 06:07:02;;;;;;;41.20;25.50;;;;;;;-2.08;77.41;98110.72;1749015;80;21692;-57
2021/01/14 06:09:29;;;;;;;41.50;25.97;;;;;;;-2.08;77.31;98105.39;1748731;80;21323;-57
2021/01/14 06:12:12;;;;;;;43.68;27.35;;;;;;;-2.11;77.45;98110.67;1748610;82;21331;-57
2021/01/14 06:14:48;;;;;;;47.55;28.70;;;;;;;-2.07;77.50;98115.02;1766270;79;23155;-57
2021/01/14 06:17:16;;;;;;;50.40;27.98;;;;;;;-2.11;77.55;98109.34;1723494;82;21214;-57
2021/01/14 06:19:44;;;;;;;46.95;28.50;;;;;;;-2.09;77.59;98109.91;1729602;82;21173;-57
2021/01/14 06:22:17;;;;;;;44.70;27.58;;;;;;;-2.08;77.48;98094.73;1725258;82;21149;-57
2021/01/14 06:24:45;;;;;;;48.42;30.30;;;;;;;-2.06;77.37;98097.48;1743546;82;21219;-57
2021/01/14 06:27:14;;;;;;;59.25;34.15;;;;;;;-2.05;77.39;98103.08;1752510;82;21324;-57
2021/01/14 06:29:44;;;;;;;109.67;50.05;;;;;;;-2.03;77.44;98104.19;1723826;82;21192;-56
2021/01/14 06:32:17;;;;;;;88.05;44.75;;;;;;;-2.01;77.33;98112.24;1752575;81;21165;-57
2021/01/14 06:34:50;;;;;;;74.15;40.85;;;;;;;-2.01;77.34;98103.42;1748452;82;21185;-57
2021/01/14 06:37:22;;;;;;;61.75;38.13;;;;;;;-2.00;77.44;98099.73;1739837;82;21309;-57
2021/01/14 06:42:36;;;;;;;63.98;35.80;;;;;;;-1.95;77.40;98094.52;1758059;79;23471;-57
2021/01/14 06:45:09;;;;;;;55.15;34.15;;;;;;;-2.00;77.55;98102.39;1720398;82;21958;-57
2021/01/14 06:47:46;;;;;;;67.72;39.23;;;;;;;-2.02;77.59;98100.49;1722659;83;21214;-57
2021/01/14 06:50:20;;;;;;;55.73;35.70;;;;;;;-1.99;77.59;98100.03;1694135;85;21299;-57
2021/01/14 06:53:02;;;;;;;55.30;32.75;;;;;;;-1.98;77.63;98107.51;1695493;83;21291;-57
2021/01/14 06:55:36;;;;;;;61.18;35.05;;;;;;;-1.98;77.74;98105.63;1715982;83;21169;-57
2021/01/14 06:58:16;;;;;;;54.93;33.25;;;;;;;-2.02;77.58;98113.28;1692338;85;21573;-57
2021/01/14 07:00:47;;;;;;;53.08;29.80;;;;;;;-2.02;77.52;98115.16;1721085;83;21343;-57
2021/01/14 07:03:22;;;;;;;47.93;30.12;;;;;;;-2.04;77.56;98117.23;1695613;83;21335;-58
2021/01/14 07:05:58;;;;;;;52.10;29.63;;;;;;;-2.02;77.53;98111.16;1717082;83;21189;-57
2021/01/14 07:08:41;;;;;;;55.70;31.02;;;;;;;-1.98;77.63;98116.84;1714345;83;21291;-58
2021/01/14 07:11:21;;;;;;;51.70;30.48;;;;;;;-1.96;77.64;98120.89;1703644;83;21165;-59
2021/01/14 07:13:51;;;;;;;47.78;29.50;;;;;;;-1.92;77.72;98118.06;1694459;83;21328;-59
2021/01/14 07:16:21;;;;;;;53.85;31.00;;;;;;;-1.89;77.60;98117.59;1692495;83;21350;-57
2021/01/14 07:18:50;;;;;;;47.93;28.92;;;;;;;-1.88;77.58;98110.41;1695569;83;21155;-58
2021/01/14 07:21:37;;;;;;;51.50;30.68;;;;;;;-1.86;77.41;98110.98;1714832;82;21160;-57
2021/01/14 07:24:28;;;;;;;49.25;29.87;;;;;;;-1.88;77.42;98120.56;1722577;83;21172;-59
2021/01/14 07:26:59;;;;;;;49.27;30.88;;;;;;;-1.90;77.59;98128.48;1715769;83;21207;-57
2021/01/14 07:29:29;;;;;;;50.65;30.15;;;;;;;-1.91;77.71;98123.66;1710969;83;21161;-57
2021/01/14 07:31:59;;;;;;;47.93;28.17;;;;;;;-1.91;77.78;98131.66;1708235;83;21149;-57
2021/01/14 07:34:38;;;;;;;48.13;29.20;;;;;;;-1.95;77.62;98129.71;1722420;83;21149;-57
2021/01/14 07:37:18;;;;;;;42.62;26.12;;;;;;;-1.97;77.74;98132.59;1694657;83;21710;-58
2021/01/14 07:42:32;;;;;;;91.15;49.73;;;;;;;-1.87;77.77;98116.83;1759326;79;23585;-57
2021/01/14 07:45:05;;;;;;;99.35;53.05;;;;;;;-1.89;77.84;98121.59;1722669;83;21106;-57
2021/01/14 07:47:44;;;;;;;90.77;49.65;;;;;;;-1.78;77.73;98118.13;1773370;79;21164;-58
2021/01/14 07:50:27;;;;;;;78.95;55.65;;;;;;;-1.68;77.61;98121.53;1797637;79;21137;-57
2021/01/14 07:52:57;;;;;;;45.17;28.00;;;;;;;-1.71;77.25;98120.16;1789409;79;21306;-57
2021/01/14 07:55:49;;;;;;;45.25;28.52;;;;;;;-1.73;77.16;98126.22;1783676;79;21179;-57
2021/01/14 07:58:21;;;;;;;48.85;27.75;;;;;;;-1.77;77.36;98136.28;1675156;85;22048;-57
2021/01/14 08:01:09;;;;;;;48.83;28.27;;;;;;;-1.77;77.42;98133.06;1613581;87;21217;-55
2021/01/14 08:03:42;;;;;;;47.73;28.92;;;;;;;-1.74;77.47;98141.15;1624370;88;21209;-56
2021/01/14 08:06:27;;;;;;;47.88;28.23;;;;;;;-1.72;77.40;98141.20;1617267;87;21228;-54
2021/01/14 08:09:05;;;;;;;48.92;30.05;;;;;;;-1.70;77.38;98144.43;1651817;85;21201;-56
2021/01/14 08:11:36;;;;;;;51.50;32.28;;;;;;;-1.71;77.53;98150.02;1654052;85;21341;-57
2021/01/14 08:14:20;;;;;;;55.63;33.90;;;;;;;-1.73;77.60;98140.90;1621524;87;21309;-56
2021/01/14 08:16:52;;;;;;;60.45;34.65;;;;;;;-1.73;77.64;98139.56;1638973;87;21351;-57
2021/01/14 08:19:32;;;;;;;56.20;33.53;;;;;;;-1.74;77.82;98148.63;1670164;85;21207;-57
2021/01/14 08:22:07;;;;;;;53.42;30.65;;;;;;;-1.74;78.02;98151.30;1677914;85;21762;-57
2021/01/14 08:24:45;;;;;;;53.50;30.80;;;;;;;-1.69;78.14;98153.25;1659662;85;21617;-56
2021/01/14 08:27:28;;;;;;;55.43;33.13;;;;;;;-1.68;78.01;98148.22;1635604;87;21592;-55
2021/01/14 08:30:14;;;;;;;50.98;29.65;;;;;;;-1.71;78.08;98148.69;1671707;85;21302;-57
2021/01/14 08:32:49;;;;;;;49.05;28.95;;;;;;;-1.71;78.40;98155.35;1678208;85;21314;-54
2021/01/14 08:35:23;;;;;;;52.23;31.15;;;;;;;-1.65;78.36;98155.23;1631801;87;21359;-57
2021/01/14 08:37:57;;;;;;;54.42;31.10;;;;;;;-1.60;78.25;98155.88;1662130;85;21148;-57
2021/01/14 08:40:34;;;;;;;55.80;30.68;;;;;;;-1.60;78.25;98150.55;1631341;87;21180;-54
2021/01/14 08:43:14;;;;;;;51.85;30.72;;;;;;;-1.55;78.20;98147.45;1624888;88;21241;-56
2021/01/14 08:45:55;;;;;;;56.30;30.72;;;;;;;-1.51;78.15;98152.62;1624117;88;21333;-56
2021/01/14 08:48:29;;;;;;;58.42;32.05;;;;;;;-1.53;78.13;98148.57;1653043;85;21868;-57
2021/01/14 08:51:03;;;;;;;54.98;31.73;;;;;;;-1.53;78.22;98149.39;1644778;85;21759;-56
2021/01/14 08:53:35;;;;;;;52.03;30.17;;;;;;;-1.52;78.25;98148.84;1623976;88;21348;-56
2021/01/14 08:56:11;;;;;;;55.23;34.18;;;;;;;-1.48;78.26;98151.85;1632669;85;21179;-57
2021/01/14 08:58:45;;;;;;;62.60;34.67;;;;;;;-1.46;78.34;98151.12;1646449;86;21302;-55
2021/01/14 09:01:21;;;;;;;58.60;33.95;;;;;;;-1.50;78.45;98148.10;1632256;85;22131;-57
2021/01/14 09:03:54;;;;;;;55.98;33.70;;;;;;;-1.49;78.36;98148.92;1640970;86;21310;-56
2021/01/14 09:06:38;;;;;;;61.77;36.88;;;;;;;-1.53;78.45;98150.72;1637408;85;21309;-56
2021/01/14 09:09:10;;;;;;;54.13;31.90;;;;;;;-1.51;78.47;98148.63;1657581;85;21350;-56
2021/01/14 09:11:39;;;;;;;63.13;36.63;;;;;;;-1.47;78.57;98146.81;1631025;86;21177;-56
2021/01/14 09:14:14;;;;;;;68.75;39.15;;;;;;;-1.40;78.60;98153.66;1652975;86;21688;-57
2021/01/14 09:16:44;;;;;;;62.80;37.17;;;;;;;-1.36;78.58;98150.00;1635973;86;21208;-57
2021/01/14 09:19:20;;;;;;;69.30;37.93;;;;;;;-1.28;78.52;98146.98;1655995;86;21584;-56
2021/01/14 09:21:48;;;;;;;65.78;37.65;;;;;;;-1.26;78.37;98148.37;1653997;86;21752;-58
2021/01/14 09:24:18;;;;;;;62.85;36.08;;;;;;;-1.24;78.01;98146.26;1633706;86;21151;-58
2021/01/14 09:26:49;;;;;;;68.37;39.88;;;;;;;-1.28;77.89;98146.47;1595679;88;21821;-57
2021/01/14 09:29:19;;;;;;;64.15;37.23;;;;;;;-1.53;77.97;98114.70;1647719;86;21307;-57
2021/01/14 09:31:47;;;;;;;67.85;37.73;;;;;;;-1.36;78.10;98143.33;1660236;86;21344;-56
2021/01/14 09:34:15;;;;;;;66.15;36.38;;;;;;;-1.32;78.12;98139.97;1640503;86;21739;-56
2021/01/14 09:36:43;;;;;;;65.00;37.45;;;;;;;-1.31;78.12;98143.45;1635922;86;21803;-57
2021/01/14 09:39:14;;;;;;;64.00;36.77;;;;;;;-1.32;78.15;98151.16;1651398;85;21309;-57
2021/01/14 09:41:42;;;;;;;63.85;38.15;;;;;;;-1.35;78.32;98139.11;1635539;86;21310;-58
2021/01/14 09:44:14;;;;;;;66.45;40.20;;;;;;;-1.30;78.30;98147.20;1644505;86;21193;-57
2021/01/14 09:46:45;;;;;;;65.17;39.13;;;;;;;-1.27;78.29;98141.91;1619057;88;21434;-57
2021/01/14 09:49:19;;;;;;;66.35;38.10;;;;;;;-1.21;78.19;98135.66;1642959;86;21130;-57
2021/01/14 09:51:46;;;;;;;70.75;39.50;;;;;;;-1.17;78.08;98137.59;1648074;86;21351;-57
2021/01/14 09:54:14;;;;;;;63.92;38.48;;;;;;;-1.17;77.97;98132.81;1641354;86;21151;-57
2021/01/14 09:56:54;;;;;;;59.45;34.53;;;;;;;-1.17;77.86;98136.27;1636727;86;21229;-57
2021/01/14 09:59:30;;;;;;;63.33;38.33;;;;;;;-1.17;77.90;98134.14;1673188;85;21805;-57
2021/01/14 10:02:00;;;;;;;65.70;37.03;;;;;;;-1.17;77.99;98134.14;1649617;86;21188;-56
2021/01/14 10:04:28;;;;;;;71.33;42.17;;;;;;;-1.13;77.95;98134.75;1640413;86;21845;-57
2021/01/14 10:07:05;;;;;;;73.75;39.83;;;;;;;-1.10;77.99;98134.27;1657356;85;21201;-57
2021/01/14 10:09:33;;;;;;;71.50;38.65;;;;;;;-1.09;77.85;98139.09;1676096;85;21325;-56
2021/01/14 10:12:05;;;;;;;76.17;40.50;;;;;;;-1.07;77.70;98131.68;1658083;85;21209;-58
2021/01/14 10:14:33;;;;;;;70.47;38.63;;;;;;;-1.06;77.68;98132.76;1661676;85;21623;-57
2021/01/14 10:17:13;;;;;;;71.82;40.85;;;;;;;-1.06;77.67;98130.61;1668201;85;21184;-58
2021/01/14 10:22:24;;;;;;;70.87;37.05;;;;;;;-1.12;77.73;98132.89;1788943;79;23154;-55
2021/01/14 10:25:04;;;;;;;78.40;41.10;;;;;;;-1.15;77.61;98132.03;1726195;81;21162;-57
2021/01/14 10:27:32;;;;;;;76.33;41.80;;;;;;;-1.14;77.71;98128.33;1734244;80;21125;-55
2021/01/14 10:30:18;;;;;;;77.32;42.70;;;;;;;-1.18;78.05;98129.32;1730767;83;21184;-57
2021/01/14 10:32:47;;;;;;;76.30;43.28;;;;;;;-1.12;78.08;98128.37;1741271;80;21272;-56
2021/01/14 10:35:25;;;;;;;70.35;39.60;;;;;;;-1.10;78.06;98128.15;1759569;81;21109;-56
2021/01/14 10:38:11;;;;;;;72.15;39.73;;;;;;;-1.08;77.96;98121.52;1754164;81;21174;-56
2021/01/14 10:40:42;;;;;;;70.95;39.98;;;;;;;-1.05;77.92;98122.89;1750544;82;21631;-56
2021/01/14 10:43:16;;;;;;;64.55;35.83;;;;;;;-1.06;78.01;98121.27;1750029;81;21284;-57
2021/01/14 10:45:44;;;;;;;69.20;41.15;;;;;;;-1.00;77.98;98119.00;1729396;81;21301;-57
2021/01/14 10:48:15;;;;;;;69.67;37.55;;;;;;;-0.97;77.85;98117.19;1758812;81;21295;-56
2021/01/14 10:50:50;;;;;;;72.42;42.45;;;;;;;-0.95;77.82;98113.74;1753572;80;21572;-55
2021/01/14 10:53:32;;;;;;;78.40;43.20;;;;;;;-0.95;77.84;98113.74;1751032;81;21198;-56
2021/01/14 10:56:04;;;;;;;77.90;42.17;;;;;;;-1.11;77.79;98078.45;1744674;82;21156;-56
2021/01/14 10:58:35;;;;;;;90.28;48.92;;;;;;;-0.90;77.76;98108.52;1728943;82;22152;-57
2021/01/14 11:01:16;;;;;;;80.92;46.73;;;;;;;-0.85;77.81;98103.25;1728319;83;21189;-58
2021/01/14 11:03:44;;;;;;;75.35;43.98;;;;;;;-0.85;77.69;98094.45;1707306;81;21318;-59
2021/01/14 11:06:12;;;;;;;81.65;43.50;;;;;;;-0.85;77.60;98100.58;1753990;81;21131;-58
2021/01/14 11:11:19;;;;;;;76.80;42.43;;;;;;;-0.78;77.49;98093.23;1773714;79;22670;-56
2021/01/14 11:13:49;;;;;;;76.87;41.92;;;;;;;-0.81;77.44;98099.05;1713665;83;21196;-55
2021/01/14 11:16:18;;;;;;;84.67;46.18;;;;;;;-0.79;77.30;98097.50;1698355;83;21169;-57
2021/01/14 11:18:51;;;;;;;75.03;43.90;;;;;;;-0.80;77.30;98094.01;1687951;85;21159;-57
2021/01/14 11:21:33;;;;;;;84.25;47.00;;;;;;;-0.81;77.33;98092.90;1670747;85;21212;-57
2021/01/14 11:24:01;;;;;;;81.72;44.48;;;;;;;-0.77;77.25;98098.88;1675993;85;21161;-57
2021/01/14 11:26:30;;;;;;;81.02;44.50;;;;;;;-0.71;77.26;98101.13;1689040;83;21183;-56
2021/01/14 11:28:58;;;;;;;75.83;42.58;;;;;;;-0.71;77.20;98092.56;1665360;85;21197;-56
2021/01/14 11:31:27;;;;;;;74.22;43.80;;;;;;;-0.73;77.11;98097.34;1661896;85;21839;-56
2021/01/14 11:33:55;;;;;;;85.03;46.55;;;;;;;-0.73;77.02;98098.69;1682805;85;21149;-57
2021/01/14 11:36:23;;;;;;;82.75;45.03;;;;;;;-0.75;77.03;98100.80;1682054;85;21323;-56
2021/01/14 11:38:51;;;;;;;82.85;46.25;;;;;;;-0.73;77.03;98096.53;1655445;85;21759;-56
2021/01/14 11:41:22;;;;;;;88.72;48.13;;;;;;;-0.75;77.01;98098.13;1679142;85;21693;-56
2021/01/14 11:43:50;;;;;;;77.35;42.98;;;;;;;-0.76;77.14;98099.69;1679156;85;21338;-56
2021/01/14 11:46:24;;;;;;;80.60;45.25;;;;;;;-0.71;77.03;98093.11;1682418;85;21315;-56
2021/01/14 11:48:52;;;;;;;77.60;43.28;;;;;;;-0.69;77.07;98096.34;1682240;85;21181;-56
2021/01/14 11:51:20;;;;;;;72.82;42.80;;;;;;;-0.68;77.08;98089.44;1672789;85;21733;-56